Time;durP1;ratioP1;P1;durP2;ratioP2;P2;SDS_P1;SDS_P2;PMS_P1;PMS_P2;Temp;Humidity;BMP_temperature;BMP_pressure;BME280_temperature;BME280_humidity;BME280_pressure;Samples;Min_cycle;Max_cycle;Signal;HPM_P1;HPM_P2
2023/07/15 00:09:59;;;;;;;11.73;3.33;;;21.80;61.20;;;;;;21085982;28;20220;-67
2023/07/15 00:20:01;;;;;;;7.90;2.87;;;21.70;61.40;;;;;;21095265;28;20340;-67
2023/07/15 00:30:06;;;;;;;9.97;3.43;;;21.60;61.80;;;;;;21094745;28;20681;-66
2023/07/15 00:40:10;;;;;;;7.80;3.33;;;21.40;62.40;;;;;;21093379;28;20238;-69
2023/07/15 00:50:12;;;;;;;5.43;3.50;;;21.30;62.70;;;;;;21093512;28;20238;-68
2023/07/15 01:00:15;;;;;;;7.07;3.57;;;21.20;63.40;;;;;;21092167;28;20329;-69
2023/07/15 01:10:16;;;;;;;7.57;3.70;;;21.00;64.30;;;;;;21091115;28;20241;-69
2023/07/15 01:20:22;;;;;;;9.60;3.70;;;20.90;65.30;;;;;;21089709;28;20261;-67
2023/07/15 01:30:24;;;;;;;7.87;3.60;;;20.90;66.20;;;;;;21090293;28;20210;-68
2023/07/15 01:40:25;;;;;;;8.97;3.90;;;20.70;67.10;;;;;;21088724;28;20240;-69
2023/07/15 01:50:27;;;;;;;6.70;3.30;;;20.60;67.90;;;;;;21087844;28;20279;-69
2023/07/15 02:00:29;;;;;;;5.70;3.67;;;20.50;68.90;;;;;;21087654;28;20276;-68
2023/07/15 02:10:31;;;;;;;9.77;3.50;;;20.40;69.50;;;;;;21086394;28;20241;-66
2023/07/15 02:20:33;;;;;;;6.27;3.53;;;20.30;70.20;;;;;;21085546;28;20244;-65
2023/07/15 02:30:35;;;;;;;9.23;4.13;;;20.20;70.90;;;;;;21084114;28;20207;-65
2023/07/15 02:40:36;;;;;;;6.40;3.60;;;20.00;71.50;;;;;;21084136;28;20233;-68
2023/07/15 02:50:38;;;;;;;8.47;4.10;;;20.00;72.00;;;;;;21083137;28;20712;-67
2023/07/15 03:00:41;;;;;;;7.40;3.70;;;20.00;72.60;;;;;;21082957;28;20233;-65
2023/07/15 03:10:43;;;;;;;6.80;3.40;;;19.90;73.00;;;;;;21081932;28;20308;-67
2023/07/15 03:20:45;;;;;;;8.67;3.77;;;19.90;73.90;;;;;;21081235;28;20720;-66
2023/07/15 03:30:48;;;;;;;8.00;3.90;;;19.90;74.90;;;;;;21080843;28;20241;-65
2023/07/15 03:40:50;;;;;;;6.57;4.03;;;19.90;75.50;;;;;;21079504;28;20696;-68
2023/07/15 03:50:52;;;;;;;7.70;3.70;;;19.90;76.40;;;;;;21079068;28;20241;-66
2023/07/15 04:00:55;;;;;;;7.07;4.33;;;19.70;77.60;;;;;;21079177;28;20236;-66
2023/07/15 04:10:57;;;;;;;7.60;4.57;;;19.70;78.60;;;;;;21078280;28;20300;-67
2023/07/15 04:20:59;;;;;;;9.70;4.30;;;19.70;79.30;;;;;;21077784;28;20244;-68
2023/07/15 04:31:01;;;;;;;5.40;3.87;;;19.80;80.00;;;;;;21078021;28;20217;-68
2023/07/15 04:41:02;;;;;;;8.93;3.90;;;19.90;80.40;;;;;;21077260;28;20233;-65
2023/07/15 04:51:04;;;;;;;8.63;4.00;;;20.00;80.80;;;;;;21076738;28;20927;-67
2023/07/15 05:01:06;;;;;;;9.00;4.07;;;20.10;80.90;;;;;;21089728;28;20351;-67
2023/07/15 05:11:08;;;;;;;7.03;3.67;;;20.30;80.90;;;;;;21091533;28;20661;-67
2023/07/15 05:21:10;;;;;;;10.87;4.47;;;20.50;80.80;;;;;;21090584;28;20266;-66
2023/07/15 05:31:11;;;;;;;4.83;3.73;;;20.70;81.10;;;;;;21090161;28;20653;-68
2023/07/15 05:41:14;;;;;;;12.00;5.00;;;21.00;80.90;;;;;;21089038;28;20737;-67
2023/07/15 05:51:16;;;;;;;10.53;3.53;;;21.40;80.00;;;;;;21088034;28;20233;-68
2023/07/15 06:01:18;;;;;;;4.33;3.47;;;21.70;79.60;;;;;;21087715;28;20259;-68
2023/07/15 06:11:20;;;;;;;5.83;4.13;;;22.10;79.00;;;;;;21086233;28;20207;-68
2023/07/15 06:21:22;;;;;;;6.30;3.33;;;22.40;78.50;;;;;;21085511;28;20217;-68
2023/07/15 06:31:24;;;;;;;7.07;3.83;;;22.80;78.00;;;;;;21085189;28;20238;-67
2023/07/15 06:41:26;;;;;;;10.53;3.40;;;23.20;77.10;;;;;;21084240;28;20207;-67
2023/07/15 06:51:28;;;;;;;7.20;4.73;;;23.40;76.40;;;;;;21083091;28;20229;-67
2023/07/15 07:01:29;;;;;;;9.47;3.70;;;23.70;75.80;;;;;;21083153;28;20209;-67
2023/07/15 07:11:31;;;;;;;8.40;3.43;;;23.90;74.40;;;;;;21081885;28;20206;-68
2023/07/15 07:21:33;;;;;;;5.57;3.27;;;24.20;73.70;;;;;;21080799;28;20245;-67
2023/07/15 07:31:35;;;;;;;6.07;3.07;;;24.50;72.90;;;;;;21080867;28;20209;-69
2023/07/15 07:41:36;;;;;;;5.50;3.70;;;24.80;72.20;;;;;;21080232;28;20242;-67
2023/07/15 07:51:38;;;;;;;5.90;2.90;;;25.20;71.80;;;;;;21078889;28;20322;-67
2023/07/15 08:01:40;;;;;;;4.47;2.90;;;25.60;70.40;;;;;;21078727;28;20300;-68
2023/07/15 08:11:44;;;;;;;2.60;2.40;;;26.30;67.80;;;;;;21078500;28;20212;-68
2023/07/15 08:21:46;;;;;;;5.07;2.40;;;26.70;65.40;;;;;;21077964;28;20235;-70
2023/07/15 08:31:47;;;;;;;3.50;2.70;;;26.90;63.40;;;;;;21085917;28;20301;-70
2023/07/15 08:41:53;;;;;;;2.47;2.10;;;27.10;60.70;;;;;;21094096;28;20692;-68
2023/07/15 08:51:56;;;;;;;6.93;2.80;;;27.50;58.90;;;;;;21092582;28;20238;-67
2023/07/15 09:01:59;;;;;;;5.33;2.73;;;27.70;57.40;;;;;;21092176;28;20637;-67
2023/07/15 09:12:07;;;;;;;3.77;2.10;;;28.20;54.70;;;;;;21091306;28;20314;-67
2023/07/15 09:22:09;;;;;;;5.28;1.90;;;28.40;52.60;;;;;;21090706;28;20206;-68
2023/07/15 09:32:21;;;;;;;2.40;1.98;;;28.40;51.40;;;;;;21089613;28;20701;-67
2023/07/15 09:42:26;;;;;;;5.38;3.97;;;28.50;50.50;;;;;;21088644;28;20221;-71
2023/07/15 09:52:28;;;;;;;6.00;4.88;;;28.70;49.90;;;;;;21087842;28;20318;-71
2023/07/15 10:02:42;;;;;;;5.45;2.17;;;28.70;49.80;;;;;;21087333;28;20210;-69
2023/07/15 10:12:45;;;;;;;3.08;2.13;;;29.20;49.00;;;;;;21086792;28;20712;-70
2023/07/15 10:22:49;;;;;;;3.47;2.15;;;29.60;47.90;;;;;;21085620;28;20285;-69
2023/07/15 10:33:06;;;;;;;2.60;2.10;;;30.10;47.50;;;;;;21084769;28;20230;-69
2023/07/15 10:43:08;;;;;;;2.83;2.17;;;30.40;47.00;;;;;;21085577;28;20213;-68
2023/07/15 10:53:23;;;;;;;2.67;2.47;;;30.50;47.00;;;;;;21082289;28;20249;-69
2023/07/15 11:03:26;;;;;;;4.15;2.20;;;30.90;46.30;;;;;;21082548;28;20211;-68
2023/07/15 11:13:29;;;;;;;4.85;2.53;;;31.00;46.00;;;;;;21081924;28;20272;-67
2023/07/15 11:23:31;;;;;;;8.73;2.70;;;31.40;46.00;;;;;;21081234;28;20198;-67
2023/07/15 11:33:33;;;;;;;3.85;2.35;;;31.60;46.00;;;;;;21080352;28;20238;-68
2023/07/15 11:43:35;;;;;;;5.00;2.33;;;31.70;45.60;;;;;;21080131;28;20203;-67
2023/07/15 11:53:38;;;;;;;6.40;4.13;;;31.80;45.40;;;;;;21079006;28;20276;-67
2023/07/15 12:03:40;;;;;;;10.68;3.38;;;31.90;45.50;;;;;;21078514;28;20206;-68
2023/07/15 12:13:42;;;;;;;4.97;2.42;;;32.10;45.10;;;;;;21078561;28;20235;-69
2023/07/15 12:23:43;;;;;;;2.88;2.30;;;32.50;44.50;;;;;;21078046;28;20293;-68
2023/07/15 12:33:45;;;;;;;2.70;2.30;;;32.70;43.90;;;;;;21077583;28;20747;-68
2023/07/15 12:43:47;;;;;;;5.05;2.50;;;32.50;43.70;;;;;;21077695;28;20211;-68
2023/07/15 12:53:49;;;;;;;3.40;3.10;;;32.60;43.20;;;;;;21076817;28;20716;-69
2023/07/15 13:03:51;;;;;;;5.22;2.47;;;32.70;43.20;;;;;;21076619;28;20261;-69
2023/07/15 13:13:52;;;;;;;4.95;2.75;;;32.80;43.40;;;;;;21076540;28;20676;-68
2023/07/15 13:23:54;;;;;;;3.45;2.75;;;32.90;42.80;;;;;;21090728;28;20209;-68
2023/07/15 13:33:56;;;;;;;4.82;2.45;;;32.70;43.40;;;;;;21089533;28;20234;-69
2023/07/15 13:43:58;;;;;;;4.18;2.70;;;32.60;43.90;;;;;;21089195;28;20198;-69
2023/07/15 13:53:59;;;;;;;3.97;2.38;;;32.70;43.70;;;;;;21087985;28;20268;-68
2023/07/15 14:04:01;;;;;;;6.07;3.50;;;32.30;44.20;;;;;;21087616;28;20572;-70
2023/07/15 14:14:03;;;;;;;6.63;2.85;;;32.30;44.40;;;;;;21087172;28;20723;-68
2023/07/15 14:24:05;;;;;;;7.32;3.40;;;32.10;44.10;;;;;;21086069;28;20570;-69
2023/07/15 14:34:06;;;;;;;7.93;3.33;;;32.60;43.90;;;;;;21085110;28;20321;-71
2023/07/15 14:44:08;;;;;;;4.70;2.75;;;33.40;42.60;;;;;;21087627;28;20222;-71
2023/07/15 14:54:13;;;;;;;3.85;2.95;;;33.20;42.60;;;;;;21087415;28;20284;-69
2023/07/15 15:04:14;;;;;;;5.95;4.50;;;34.10;42.10;;;;;;21082791;28;20294;-70
2023/07/15 15:14:20;;;;;;;6.25;3.35;;;35.00;41.20;;;;;;21082859;28;20273;-69
2023/07/15 15:24:25;;;;;;;6.30;3.00;;;34.40;41.70;;;;;;21081388;28;20202;-67
2023/07/15 15:34:27;;;;;;;4.28;3.13;;;33.90;41.90;;;;;;21080532;28;20325;-67
2023/07/15 15:44:28;;;;;;;12.25;3.20;;;33.60;42.40;;;;;;21079724;28;20213;-68
2023/07/15 15:54:30;;;;;;;12.98;3.72;;;33.00;43.10;;;;;;21078042;28;20241;-68
2023/07/15 16:04:32;;;;;;;10.30;3.58;;;31.70;46.40;;;;;;21079047;28;20206;-68
2023/07/15 16:14:34;;;;;;;11.82;3.80;;;30.30;50.50;;;;;;21078823;28;20230;-72
2023/07/15 16:24:35;;;;;;;6.93;3.88;;;29.10;53.00;;;;;;21078086;28;20199;-72
2023/07/15 16:34:37;;;;;;;8.97;3.73;;;28.50;56.30;;;;;;21077720;28;20317;-71
2023/07/15 16:44:39;;;;;;;10.13;5.07;;;27.60;61.20;;;;;;21077733;28;20298;-72
2023/07/15 16:54:41;;;;;;;12.27;6.20;;;26.20;72.30;;;;;;21086134;28;20242;-71
2023/07/15 17:04:42;;;;;;;9.60;5.23;;;23.80;95.30;;;;;;21092148;28;20234;-72
2023/07/15 17:14:44;;;;;;;7.63;4.10;;;23.50;99.40;;;;;;21091629;28;20237;-71
2023/07/15 17:24:48;;;;;;;11.60;3.17;;;25.30;99.90;;;;;;21090530;28;20207;-68
2023/07/15 17:34:49;;;;;;;6.90;3.50;;;31.30;91.00;;;;;;21089796;28;20334;-69
2023/07/15 17:44:51;;;;;;;6.60;3.53;;;32.10;82.00;;;;;;21089144;28;20206;-69
2023/07/15 17:54:53;;;;;;;4.00;3.10;;;31.10;74.80;;;;;;21088254;28;20336;-68
2023/07/15 18:04:54;;;;;;;4.32;3.15;;;30.90;76.30;;;;;;21086958;28;20290;-68
2023/07/15 18:14:56;;;;;;;7.53;5.77;;;28.80;80.60;;;;;;21086731;28;20742;-71
2023/07/15 18:24:58;;;;;;;6.87;3.73;;;27.60;85.30;;;;;;21086296;28;20302;-72
2023/07/15 18:35:00;;;;;;;5.80;4.13;;;26.80;89.40;;;;;;21085090;28;20284;-72
2023/07/15 18:45:02;;;;;;;5.00;4.20;;;26.50;91.30;;;;;;21084373;28;20229;-72
2023/07/15 18:55:05;;;;;;;6.20;4.57;;;26.10;92.40;;;;;;21083611;28;20242;-72
2023/07/15 19:05:07;;;;;;;8.20;5.60;;;26.00;93.40;;;;;;21082842;28;20206;-70
2023/07/15 19:15:09;;;;;;;5.63;4.50;;;25.70;93.90;;;;;;21081422;28;20234;-69
2023/07/15 19:25:11;;;;;;;7.53;5.40;;;25.40;94.90;;;;;;21081684;28;20561;-69
2023/07/15 19:35:12;;;;;;;6.57;4.67;;;25.40;95.60;;;;;;21080685;28;20234;-69
2023/07/15 19:45:15;;;;;;;6.13;5.00;;;25.10;96.60;;;;;;21080036;28;20210;-70
2023/07/15 19:55:17;;;;;;;7.50;5.20;;;24.70;97.50;;;;;;21079382;28;20776;-72
2023/07/15 20:05:19;;;;;;;7.00;5.20;;;24.50;98.40;;;;;;21078916;28;20206;-68
2023/07/15 20:15:21;;;;;;;11.47;5.20;;;24.30;99.00;;;;;;21078558;28;20237;-68
2023/07/15 20:25:24;;;;;;;6.30;5.17;;;24.20;99.60;;;;;;21083044;28;20302;-68
2023/07/15 20:35:26;;;;;;;6.20;5.60;;;24.10;99.90;;;;;;21094612;28;20238;-68
2023/07/15 20:45:28;;;;;;;8.60;5.20;;;23.90;99.90;;;;;;21092693;28;20210;-67
2023/07/15 20:55:30;;;;;;;8.93;4.80;;;23.90;99.90;;;;;;21093054;28;20293;-67
2023/07/15 21:05:31;;;;;;;5.67;4.47;;;24.00;99.90;;;;;;21092515;28;20202;-68
2023/07/15 21:15:34;;;;;;;7.67;4.80;;;;;;;;;;21091684;28;20262;-68
2023/07/15 21:25:36;;;;;;;7.00;3.60;;;;;;;;;;21091096;28;20285;-68
2023/07/15 21:35:37;;;;;;;4.57;3.73;;;23.20;99.90;;;;;;21088925;28;20242;-70
2023/07/15 21:45:40;;;;;;;7.13;4.40;;;22.70;99.90;;;;;;21089037;28;20289;-69
2023/07/15 21:55:42;;;;;;;7.37;4.80;;;22.70;99.90;;;;;;21088594;28;20249;-68
2023/07/15 22:05:44;;;;;;;7.20;5.20;;;22.70;99.90;;;;;;21087549;28;20203;-70
2023/07/15 22:15:46;;;;;;;9.83;4.77;;;22.90;99.90;;;;;;21085646;28;20234;-70
2023/07/15 22:25:55;;;;;;;8.27;4.30;;;22.90;99.90;;;;;;21086358;28;20564;-67
2023/07/15 22:35:57;;;;;;;17.63;5.60;;;22.90;99.90;;;;;;21085112;28;20230;-67
2023/07/15 22:45:58;;;;;;;5.00;3.33;;;22.80;99.90;;;;;;21084667;28;20207;-69
2023/07/15 22:56:00;;;;;;;7.43;4.00;;;22.60;99.90;;;;;;21083953;28;20329;-68
2023/07/15 23:06:02;;;;;;;6.70;3.70;;;22.60;99.90;;;;;;21082854;28;20242;-67
2023/07/15 23:16:04;;;;;;;4.30;3.43;;;22.50;99.90;;;;;;21082064;28;20722;-67
2023/07/15 23:26:19;;;;;;;6.73;4.07;;;22.50;99.90;;;;;;21081818;28;20548;-67
2023/07/15 23:36:21;;;;;;;9.10;4.37;;;22.50;99.90;;;;;;21080672;28;20230;-67
2023/07/15 23:46:22;;;;;;;10.37;4.27;;;22.50;99.90;;;;;;21080013;28;20209;-68
2023/07/15 23:56:24;;;;;;;6.07;4.27;;;22.50;99.90;;;;;;21079590;28;20329;-67
